Cameron Park, New South Wales

8:58 AM EST on August 22, 2014 (GMT +1000)
INEWSOUT101 | Change Station
CLOSE
Current Station
Personal Weather Station
Location: Edgeworth, NEW SOUTH WALES
Elevation: 95 ft
Nearby Weather Stations

Elev 95 ft 32.92 °S, 151.62 °E | Updated 2 minutes ago

Mostly Cloudy
Mostly Cloudy
58.1 °F
Feels Like 58.1 °F
N
2.0
Wind Variable Wind from South
Gusts 6.0 mph

Today
High -- | Low -- °F
--% Chance of Precip.
Yesterday
High -- | Low -- °F
Precip. -- in
6:23 AM 5:29 PM
Waning Crescent, 12% visible
Pressure 30.45 in
Visibility 1.2 miles
Clouds Mostly Cloudy 1000 ft
Dew Point 54 °F
Humidity 86%
Rainfall 0.57 in
Snow Depth Not available.
UV 1 out of 12
Pollen Not available.
Air Quality Not available.
Flu Activity Not available.
SPECI YWLM 212237Z 26002KT 2000 BR BKN010 13/12 Q1031 FM2330 26008KT 8000 SCT001 SCT030 FM0000 19010KT 9999 -SHRA SCT010 SCT030

More Conditions Fewer Conditions

Pressure 30.45 in
Visibility 1.2 miles
Clouds Mostly Cloudy 1000 ft
Dew Point 54 °F
Humidity 86%
Rainfall 0.57 in
Snow Depth Not available.
UV 1 out of 12
Pollen Not available.
Air Quality Not available.
Flu Activity Not available.
SPECI YWLM 212237Z 26002KT 2000 BR BKN010 13/12 Q1031 FM2330 26008KT 8000 SCT001 SCT030 FM0000 19010KT 9999 -SHRA SCT010 SCT030

More Conditions Fewer Conditions

10-Day Weather Forecast

Almanac

Astronomy

Aug. 22, 2014 Rise Set
Actual Time 6:23 AM EST 5:29 PM EST
Civil Twilight 5:58 AM EST 5:54 PM EST
Nautical Twilight 5:29 AM EST 6:23 PM EST
Astronomical Twilight 5:01 AM EST 6:52 PM EST
Moon 3:50 AM EST (8/22) 2:38 PM EST (8/22)
Length of Visible Light 11h 55m
Length of Day
11h 05m
Tomorrow will be 1m 48s longer.
Waning Crescent, 12% of the Moon is Illuminated
Aug 21
Waning Crescent
Aug 25
New
Sep 2
First Quarter
Sep 8
Full
Sep 15
Last Quarter

Yesterday's Extremes

Country Highs Country Lows

Community

WunderPhotos

Upload Photos

1,746,044 photos uploaded!

WunderBlogs® & News

Nearby

Snow Depth

Not available.

Earthquake Activity

City Distance Mag. Time & Date
No recent earthquake activity has been reported nearby.
Minimum magnitude displayed is 2.5.

Coastal Water Temperatures

Place Temperature
No Stations Reporting

Nearby Weather Stations